KDET/DET METAR and TAF weather

Enter ICAO airport designator
Station Type Date Time Source
KDET METAR 2024/04/23 04:53 UTC NOAA

KDET 230453Z 20010KT 10SM CLR 13/00 A2996 RMK AO2 SLP145 T01330000 401830028


Station Type Date Time Source
KDET Decoded METAR 2024/04/23 04:53 UTC NOAA

DETROIT CITY AIRPORT, MI, United States (KDET) 42-25N 083-01W 190M
Apr 23, 2024 - 12:53 AM EDT / 2024.04.23 0453 UTC
Wind: from the SSW (200 degrees) at 12 MPH (10 KT):0
Visibility: 10 mile(s):0
Sky conditions: clear
Temperature: 55.9 F (13.3 C)
Dew Point: 32.0 F (0.0 C)
Relative Humidity: 40%
Pressure (altimeter): 29.96 in. Hg (1014 hPa)
ob: KDET 230453Z 20010KT 10SM CLR 13/00 A2996 RMK AO2 SLP145 T01330000 401830028
cycle: 5

Station Type Date Time Source
KDET TAF 2024/04/23 06:22 UTC NOAA